sensor_id;sensor_type;location;lat;lon;timestamp;P1;durP1;ratioP1;P2;durP2;ratioP2
5343;SDS011;2694;48.954;8.928;2023-07-08T00:02:07;9.75;;;5.40;;
5343;SDS011;2694;48.954;8.928;2023-07-08T00:04:34;9.73;;;5.35;;
5343;SDS011;2694;48.954;8.928;2023-07-08T00:07:01;13.73;;;6.15;;
5343;SDS011;2694;48.954;8.928;2023-07-08T00:09:29;11.52;;;5.70;;
5343;SDS011;2694;48.954;8.928;2023-07-08T00:11:56;12.48;;;5.82;;
5343;SDS011;2694;48.954;8.928;2023-07-08T00:14:23;11.32;;;5.55;;
5343;SDS011;2694;48.954;8.928;2023-07-08T00:16:50;10.50;;;5.53;;
5343;SDS011;2694;48.954;8.928;2023-07-08T00:19:17;11.83;;;5.20;;
5343;SDS011;2694;48.954;8.928;2023-07-08T00:21:48;8.90;;;4.90;;
5343;SDS011;2694;48.954;8.928;2023-07-08T00:24:17;11.63;;;5.97;;
5343;SDS011;2694;48.954;8.928;2023-07-08T00:26:45;11.63;;;5.75;;
5343;SDS011;2694;48.954;8.928;2023-07-08T00:29:12;11.95;;;5.82;;
5343;SDS011;2694;48.954;8.928;2023-07-08T00:31:42;10.90;;;5.60;;
5343;SDS011;2694;48.954;8.928;2023-07-08T00:34:09;10.65;;;5.45;;
5343;SDS011;2694;48.954;8.928;2023-07-08T00:36:36;12.25;;;5.70;;
5343;SDS011;2694;48.954;8.928;2023-07-08T00:39:04;10.55;;;5.40;;
5343;SDS011;2694;48.954;8.928;2023-07-08T00:41:39;12.02;;;5.88;;
5343;SDS011;2694;48.954;8.928;2023-07-08T00:44:10;9.02;;;5.40;;
5343;SDS011;2694;48.954;8.928;2023-07-08T00:46:40;11.33;;;5.63;;
5343;SDS011;2694;48.954;8.928;2023-07-08T00:49:24;10.20;;;5.77;;
5343;SDS011;2694;48.954;8.928;2023-07-08T00:51:54;11.90;;;6.40;;
5343;SDS011;2694;48.954;8.928;2023-07-08T00:54:21;12.27;;;6.60;;
5343;SDS011;2694;48.954;8.928;2023-07-08T00:56:49;14.10;;;6.53;;
5343;SDS011;2694;48.954;8.928;2023-07-08T00:59:23;12.13;;;6.00;;
5343;SDS011;2694;48.954;8.928;2023-07-08T01:01:54;13.05;;;6.20;;
5343;SDS011;2694;48.954;8.928;2023-07-08T01:04:29;13.85;;;6.35;;
5343;SDS011;2694;48.954;8.928;2023-07-08T01:07:00;11.63;;;6.03;;
5343;SDS011;2694;48.954;8.928;2023-07-08T01:09:29;11.63;;;6.05;;
5343;SDS011;2694;48.954;8.928;2023-07-08T01:12:01;13.68;;;6.43;;
5343;SDS011;2694;48.954;8.928;2023-07-08T01:14:36;10.95;;;5.50;;
5343;SDS011;2694;48.954;8.928;2023-07-08T01:17:08;10.87;;;5.80;;
5343;SDS011;2694;48.954;8.928;2023-07-08T01:19:38;11.15;;;5.68;;
5343;SDS011;2694;48.954;8.928;2023-07-08T01:22:07;11.27;;;5.78;;
5343;SDS011;2694;48.954;8.928;2023-07-08T01:24:36;12.85;;;5.65;;
5343;SDS011;2694;48.954;8.928;2023-07-08T01:27:05;12.05;;;6.10;;
5343;SDS011;2694;48.954;8.928;2023-07-08T01:29:34;11.15;;;5.20;;
5343;SDS011;2694;48.954;8.928;2023-07-08T01:32:01;12.02;;;5.90;;
5343;SDS011;2694;48.954;8.928;2023-07-08T01:34:28;11.43;;;5.40;;
5343;SDS011;2694;48.954;8.928;2023-07-08T01:36:56;10.67;;;5.17;;
5343;SDS011;2694;48.954;8.928;2023-07-08T01:39:28;11.55;;;5.43;;
5343;SDS011;2694;48.954;8.928;2023-07-08T01:41:56;10.45;;;5.07;;
5343;SDS011;2694;48.954;8.928;2023-07-08T01:44:28;11.82;;;5.85;;
5343;SDS011;2694;48.954;8.928;2023-07-08T01:46:59;11.43;;;5.85;;
5343;SDS011;2694;48.954;8.928;2023-07-08T01:49:29;11.07;;;5.55;;
5343;SDS011;2694;48.954;8.928;2023-07-08T01:51:56;14.85;;;6.10;;
5343;SDS011;2694;48.954;8.928;2023-07-08T01:54:23;9.63;;;5.40;;
5343;SDS011;2694;48.954;8.928;2023-07-08T01:56:54;13.38;;;5.70;;
5343;SDS011;2694;48.954;8.928;2023-07-08T01:59:21;11.20;;;6.22;;
5343;SDS011;2694;48.954;8.928;2023-07-08T02:01:48;10.50;;;5.20;;
5343;SDS011;2694;48.954;8.928;2023-07-08T02:04:19;10.75;;;5.70;;
5343;SDS011;2694;48.954;8.928;2023-07-08T02:06:50;19.70;;;6.40;;
5343;SDS011;2694;48.954;8.928;2023-07-08T02:09:18;12.40;;;6.38;;
5343;SDS011;2694;48.954;8.928;2023-07-08T02:11:46;15.93;;;6.13;;
5343;SDS011;2694;48.954;8.928;2023-07-08T02:14:13;11.35;;;6.45;;
5343;SDS011;2694;48.954;8.928;2023-07-08T02:16:40;11.45;;;5.90;;
5343;SDS011;2694;48.954;8.928;2023-07-08T02:19:07;12.80;;;5.93;;
5343;SDS011;2694;48.954;8.928;2023-07-08T02:21:36;11.00;;;5.75;;
5343;SDS011;2694;48.954;8.928;2023-07-08T02:24:04;13.02;;;6.10;;
5343;SDS011;2694;48.954;8.928;2023-07-08T02:26:31;10.50;;;6.03;;
5343;SDS011;2694;48.954;8.928;2023-07-08T02:29:00;11.55;;;5.93;;
5343;SDS011;2694;48.954;8.928;2023-07-08T02:31:27;13.80;;;6.00;;
5343;SDS011;2694;48.954;8.928;2023-07-08T02:33:54;12.32;;;6.05;;
5343;SDS011;2694;48.954;8.928;2023-07-08T02:36:21;13.65;;;5.90;;
5343;SDS011;2694;48.954;8.928;2023-07-08T02:38:48;13.30;;;5.85;;
5343;SDS011;2694;48.954;8.928;2023-07-08T02:41:15;10.60;;;5.30;;
5343;SDS011;2694;48.954;8.928;2023-07-08T02:43:42;10.65;;;5.60;;
5343;SDS011;2694;48.954;8.928;2023-07-08T02:46:10;13.18;;;5.30;;
5343;SDS011;2694;48.954;8.928;2023-07-08T02:48:37;13.65;;;5.85;;
5343;SDS011;2694;48.954;8.928;2023-07-08T02:51:05;9.98;;;5.65;;
5343;SDS011;2694;48.954;8.928;2023-07-08T02:53:33;10.82;;;5.13;;
5343;SDS011;2694;48.954;8.928;2023-07-08T02:56:00;11.82;;;5.47;;
5343;SDS011;2694;48.954;8.928;2023-07-08T02:58:27;9.45;;;5.10;;
5343;SDS011;2694;48.954;8.928;2023-07-08T03:00:55;9.50;;;5.03;;
5343;SDS011;2694;48.954;8.928;2023-07-08T03:03:25;10.77;;;5.40;;
5343;SDS011;2694;48.954;8.928;2023-07-08T03:05:54;12.02;;;5.70;;
5343;SDS011;2694;48.954;8.928;2023-07-08T03:08:22;14.18;;;5.80;;
5343;SDS011;2694;48.954;8.928;2023-07-08T03:10:54;13.95;;;5.60;;
5343;SDS011;2694;48.954;8.928;2023-07-08T03:13:22;10.40;;;5.15;;
5343;SDS011;2694;48.954;8.928;2023-07-08T03:15:50;10.18;;;5.00;;
5343;SDS011;2694;48.954;8.928;2023-07-08T03:18:17;8.50;;;4.75;;
5343;SDS011;2694;48.954;8.928;2023-07-08T03:20:48;14.63;;;5.70;;
5343;SDS011;2694;48.954;8.928;2023-07-08T03:23:15;11.18;;;5.75;;
5343;SDS011;2694;48.954;8.928;2023-07-08T03:25:42;9.23;;;5.18;;
5343;SDS011;2694;48.954;8.928;2023-07-08T03:28:09;10.30;;;5.65;;
5343;SDS011;2694;48.954;8.928;2023-07-08T03:30:40;11.75;;;5.60;;
5343;SDS011;2694;48.954;8.928;2023-07-08T03:33:07;11.30;;;5.55;;
5343;SDS011;2694;48.954;8.928;2023-07-08T03:35:34;9.82;;;5.60;;
5343;SDS011;2694;48.954;8.928;2023-07-08T03:38:05;11.13;;;5.40;;
5343;SDS011;2694;48.954;8.928;2023-07-08T03:40:32;12.57;;;5.93;;
5343;SDS011;2694;48.954;8.928;2023-07-08T03:42:59;10.73;;;5.28;;
5343;SDS011;2694;48.954;8.928;2023-07-08T03:45:26;11.43;;;5.88;;
5343;SDS011;2694;48.954;8.928;2023-07-08T03:47:53;11.10;;;6.00;;
5343;SDS011;2694;48.954;8.928;2023-07-08T03:50:22;12.60;;;6.10;;
5343;SDS011;2694;48.954;8.928;2023-07-08T03:52:51;15.77;;;7.13;;
5343;SDS011;2694;48.954;8.928;2023-07-08T03:55:20;11.68;;;5.97;;
5343;SDS011;2694;48.954;8.928;2023-07-08T03:57:48;11.75;;;5.65;;
5343;SDS011;2694;48.954;8.928;2023-07-08T04:00:15;10.50;;;5.90;;
5343;SDS011;2694;48.954;8.928;2023-07-08T04:02:43;9.48;;;5.30;;
5343;SDS011;2694;48.954;8.928;2023-07-08T04:05:12;11.30;;;5.65;;
5343;SDS011;2694;48.954;8.928;2023-07-08T04:07:40;12.13;;;6.10;;
5343;SDS011;2694;48.954;8.928;2023-07-08T04:10:08;13.45;;;6.32;;
5343;SDS011;2694;48.954;8.928;2023-07-08T04:12:37;11.57;;;5.93;;
5343;SDS011;2694;48.954;8.928;2023-07-08T04:15:06;12.25;;;6.10;;
5343;SDS011;2694;48.954;8.928;2023-07-08T04:17:35;10.13;;;5.30;;
5343;SDS011;2694;48.954;8.928;2023-07-08T04:20:04;10.73;;;5.47;;
5343;SDS011;2694;48.954;8.928;2023-07-08T04:22:31;11.38;;;5.97;;
5343;SDS011;2694;48.954;8.928;2023-07-08T04:24:58;12.57;;;5.90;;
5343;SDS011;2694;48.954;8.928;2023-07-08T04:27:25;10.85;;;5.78;;
5343;SDS011;2694;48.954;8.928;2023-07-08T04:29:54;13.18;;;5.82;;
5343;SDS011;2694;48.954;8.928;2023-07-08T04:32:20;12.10;;;6.05;;
5343;SDS011;2694;48.954;8.928;2023-07-08T04:34:49;11.55;;;5.43;;
5343;SDS011;2694;48.954;8.928;2023-07-08T04:37:17;16.52;;;6.70;;
5343;SDS011;2694;48.954;8.928;2023-07-08T04:39:44;12.75;;;5.90;;
5343;SDS011;2694;48.954;8.928;2023-07-08T04:42:11;11.60;;;6.10;;
5343;SDS011;2694;48.954;8.928;2023-07-08T04:44:42;13.43;;;6.18;;
5343;SDS011;2694;48.954;8.928;2023-07-08T04:47:11;13.23;;;5.93;;
5343;SDS011;2694;48.954;8.928;2023-07-08T04:49:38;12.68;;;6.50;;
5343;SDS011;2694;48.954;8.928;2023-07-08T04:52:08;12.75;;;5.70;;
5343;SDS011;2694;48.954;8.928;2023-07-08T04:54:35;11.38;;;5.90;;
5343;SDS011;2694;48.954;8.928;2023-07-08T04:57:03;12.15;;;5.40;;
5343;SDS011;2694;48.954;8.928;2023-07-08T04:59:30;13.10;;;5.75;;
5343;SDS011;2694;48.954;8.928;2023-07-08T05:01:59;11.23;;;5.90;;
5343;SDS011;2694;48.954;8.928;2023-07-08T05:04:28;9.50;;;5.20;;
5343;SDS011;2694;48.954;8.928;2023-07-08T05:06:55;8.88;;;5.03;;
5343;SDS011;2694;48.954;8.928;2023-07-08T05:09:22;15.90;;;6.33;;
5343;SDS011;2694;48.954;8.928;2023-07-08T05:11:51;11.95;;;5.90;;
5343;SDS011;2694;48.954;8.928;2023-07-08T05:14:18;17.73;;;6.35;;
5343;SDS011;2694;48.954;8.928;2023-07-08T05:16:45;13.95;;;6.40;;
5343;SDS011;2694;48.954;8.928;2023-07-08T05:19:13;12.98;;;6.10;;
5343;SDS011;2694;48.954;8.928;2023-07-08T05:21:41;10.10;;;5.70;;
5343;SDS011;2694;48.954;8.928;2023-07-08T05:24:10;14.57;;;5.60;;
5343;SDS011;2694;48.954;8.928;2023-07-08T05:26:37;22.85;;;7.60;;
5343;SDS011;2694;48.954;8.928;2023-07-08T05:29:04;36.38;;;8.38;;
5343;SDS011;2694;48.954;8.928;2023-07-08T05:31:32;22.23;;;7.05;;
5343;SDS011;2694;48.954;8.928;2023-07-08T05:33:59;24.80;;;6.88;;
5343;SDS011;2694;48.954;8.928;2023-07-08T05:36:26;17.83;;;6.07;;
5343;SDS011;2694;48.954;8.928;2023-07-08T05:38:56;14.75;;;6.15;;
5343;SDS011;2694;48.954;8.928;2023-07-08T05:41:23;18.17;;;6.20;;
5343;SDS011;2694;48.954;8.928;2023-07-08T05:43:50;12.32;;;5.63;;
5343;SDS011;2694;48.954;8.928;2023-07-08T05:46:17;11.32;;;5.35;;
5343;SDS011;2694;48.954;8.928;2023-07-08T05:48:44;17.95;;;5.38;;
5343;SDS011;2694;48.954;8.928;2023-07-08T05:51:11;11.30;;;6.20;;
5343;SDS011;2694;48.954;8.928;2023-07-08T05:53:38;13.40;;;5.95;;
5343;SDS011;2694;48.954;8.928;2023-07-08T05:56:06;11.03;;;5.50;;
5343;SDS011;2694;48.954;8.928;2023-07-08T05:58:33;12.60;;;5.70;;
5343;SDS011;2694;48.954;8.928;2023-07-08T06:01:00;12.77;;;6.13;;
5343;SDS011;2694;48.954;8.928;2023-07-08T06:03:27;14.00;;;6.30;;
5343;SDS011;2694;48.954;8.928;2023-07-08T06:05:54;15.80;;;5.93;;
5343;SDS011;2694;48.954;8.928;2023-07-08T06:08:21;19.55;;;6.40;;
5343;SDS011;2694;48.954;8.928;2023-07-08T06:10:49;21.05;;;6.25;;
5343;SDS011;2694;48.954;8.928;2023-07-08T06:13:17;17.80;;;6.35;;
5343;SDS011;2694;48.954;8.928;2023-07-08T06:15:44;21.27;;;7.40;;
5343;SDS011;2694;48.954;8.928;2023-07-08T06:18:11;18.65;;;6.30;;
5343;SDS011;2694;48.954;8.928;2023-07-08T06:20:38;15.95;;;6.70;;
5343;SDS011;2694;48.954;8.928;2023-07-08T06:23:05;21.67;;;6.35;;
5343;SDS011;2694;48.954;8.928;2023-07-08T06:25:32;18.00;;;7.35;;
5343;SDS011;2694;48.954;8.928;2023-07-08T06:27:59;14.40;;;7.30;;
5343;SDS011;2694;48.954;8.928;2023-07-08T06:30:28;15.88;;;6.10;;
5343;SDS011;2694;48.954;8.928;2023-07-08T06:32:55;15.65;;;6.32;;
5343;SDS011;2694;48.954;8.928;2023-07-08T06:35:22;13.40;;;6.30;;
5343;SDS011;2694;48.954;8.928;2023-07-08T06:37:49;16.10;;;6.40;;
5343;SDS011;2694;48.954;8.928;2023-07-08T06:40:16;11.55;;;6.32;;
5343;SDS011;2694;48.954;8.928;2023-07-08T06:42:44;13.60;;;5.80;;
5343;SDS011;2694;48.954;8.928;2023-07-08T06:45:11;12.10;;;5.63;;
5343;SDS011;2694;48.954;8.928;2023-07-08T06:47:40;11.73;;;5.78;;
5343;SDS011;2694;48.954;8.928;2023-07-08T06:50:07;10.18;;;5.53;;
5343;SDS011;2694;48.954;8.928;2023-07-08T06:52:34;11.10;;;5.93;;
5343;SDS011;2694;48.954;8.928;2023-07-08T06:55:02;13.90;;;5.70;;
5343;SDS011;2694;48.954;8.928;2023-07-08T06:57:31;12.10;;;6.10;;
5343;SDS011;2694;48.954;8.928;2023-07-08T06:59:58;11.45;;;5.40;;
5343;SDS011;2694;48.954;8.928;2023-07-08T07:02:25;12.27;;;6.25;;
5343;SDS011;2694;48.954;8.928;2023-07-08T07:04:53;11.48;;;5.57;;
5343;SDS011;2694;48.954;8.928;2023-07-08T07:07:21;10.60;;;5.57;;
5343;SDS011;2694;48.954;8.928;2023-07-08T07:09:48;11.40;;;5.68;;
5343;SDS011;2694;48.954;8.928;2023-07-08T07:12:15;11.33;;;5.87;;
5343;SDS011;2694;48.954;8.928;2023-07-08T07:14:42;12.33;;;5.60;;
5343;SDS011;2694;48.954;8.928;2023-07-08T07:17:09;11.15;;;5.90;;
5343;SDS011;2694;48.954;8.928;2023-07-08T07:19:36;12.55;;;5.57;;
5343;SDS011;2694;48.954;8.928;2023-07-08T07:22:05;11.55;;;5.50;;
5343;SDS011;2694;48.954;8.928;2023-07-08T07:24:32;10.57;;;6.10;;
5343;SDS011;2694;48.954;8.928;2023-07-08T07:27:00;13.13;;;5.18;;
5343;SDS011;2694;48.954;8.928;2023-07-08T07:29:27;12.40;;;5.38;;
5343;SDS011;2694;48.954;8.928;2023-07-08T07:31:55;9.70;;;4.40;;
5343;SDS011;2694;48.954;8.928;2023-07-08T07:34:21;9.40;;;4.75;;
5343;SDS011;2694;48.954;8.928;2023-07-08T07:36:48;12.33;;;4.83;;
5343;SDS011;2694;48.954;8.928;2023-07-08T07:39:17;9.48;;;5.22;;
5343;SDS011;2694;48.954;8.928;2023-07-08T07:41:44;11.80;;;5.40;;
5343;SDS011;2694;48.954;8.928;2023-07-08T07:44:10;10.83;;;5.33;;
5343;SDS011;2694;48.954;8.928;2023-07-08T07:46:37;9.73;;;4.72;;
5343;SDS011;2694;48.954;8.928;2023-07-08T07:49:04;12.45;;;5.50;;
5343;SDS011;2694;48.954;8.928;2023-07-08T07:51:31;12.45;;;4.93;;
5343;SDS011;2694;48.954;8.928;2023-07-08T07:53:58;9.95;;;5.15;;
5343;SDS011;2694;48.954;8.928;2023-07-08T07:56:26;12.40;;;4.70;;
5343;SDS011;2694;48.954;8.928;2023-07-08T07:58:53;10.43;;;5.32;;
5343;SDS011;2694;48.954;8.928;2023-07-08T08:01:20;9.00;;;5.25;;
5343;SDS011;2694;48.954;8.928;2023-07-08T08:03:48;11.80;;;5.40;;
5343;SDS011;2694;48.954;8.928;2023-07-08T08:06:16;10.60;;;5.60;;
5343;SDS011;2694;48.954;8.928;2023-07-08T08:08:43;11.00;;;5.30;;
5343;SDS011;2694;48.954;8.928;2023-07-08T08:11:10;8.27;;;5.10;;
5343;SDS011;2694;48.954;8.928;2023-07-08T08:13:39;10.95;;;5.07;;
5343;SDS011;2694;48.954;8.928;2023-07-08T08:16:06;10.00;;;5.40;;
5343;SDS011;2694;48.954;8.928;2023-07-08T08:18:33;8.07;;;4.70;;
5343;SDS011;2694;48.954;8.928;2023-07-08T08:21:00;9.73;;;5.30;;
5343;SDS011;2694;48.954;8.928;2023-07-08T08:23:29;11.00;;;5.20;;
5343;SDS011;2694;48.954;8.928;2023-07-08T08:25:55;9.82;;;5.20;;
5343;SDS011;2694;48.954;8.928;2023-07-08T08:28:22;8.43;;;4.80;;
5343;SDS011;2694;48.954;8.928;2023-07-08T08:30:51;13.60;;;5.05;;
5343;SDS011;2694;48.954;8.928;2023-07-08T08:33:18;10.27;;;4.55;;
5343;SDS011;2694;48.954;8.928;2023-07-08T08:35:45;16.20;;;5.20;;
5343;SDS011;2694;48.954;8.928;2023-07-08T08:38:13;12.30;;;4.93;;
5343;SDS011;2694;48.954;8.928;2023-07-08T08:40:40;19.20;;;5.25;;
5343;SDS011;2694;48.954;8.928;2023-07-08T08:43:09;13.73;;;5.05;;
5343;SDS011;2694;48.954;8.928;2023-07-08T08:45:41;10.15;;;5.00;;
5343;SDS011;2694;48.954;8.928;2023-07-08T08:48:16;9.30;;;5.10;;
5343;SDS011;2694;48.954;8.928;2023-07-08T08:50:47;9.73;;;4.72;;
5343;SDS011;2694;48.954;8.928;2023-07-08T08:53:18;12.88;;;5.10;;
5343;SDS011;2694;48.954;8.928;2023-07-08T08:55:49;10.20;;;4.35;;
5343;SDS011;2694;48.954;8.928;2023-07-08T08:58:25;6.90;;;4.13;;
5343;SDS011;2694;48.954;8.928;2023-07-08T09:00:59;9.02;;;3.97;;
5343;SDS011;2694;48.954;8.928;2023-07-08T09:03:33;13.93;;;4.70;;
5343;SDS011;2694;48.954;8.928;2023-07-08T09:06:08;8.30;;;4.10;;
5343;SDS011;2694;48.954;8.928;2023-07-08T09:08:37;6.55;;;3.92;;
5343;SDS011;2694;48.954;8.928;2023-07-08T09:11:07;8.95;;;4.47;;
5343;SDS011;2694;48.954;8.928;2023-07-08T09:13:43;7.40;;;4.40;;
5343;SDS011;2694;48.954;8.928;2023-07-08T09:16:25;8.68;;;4.35;;
5343;SDS011;2694;48.954;8.928;2023-07-08T09:19:04;11.38;;;4.25;;
5343;SDS011;2694;48.954;8.928;2023-07-08T09:21:33;8.65;;;4.18;;
5343;SDS011;2694;48.954;8.928;2023-07-08T09:24:08;8.43;;;4.10;;
5343;SDS011;2694;48.954;8.928;2023-07-08T09:26:39;8.60;;;3.70;;
5343;SDS011;2694;48.954;8.928;2023-07-08T09:29:08;7.82;;;3.90;;
5343;SDS011;2694;48.954;8.928;2023-07-08T09:31:37;6.60;;;3.35;;
5343;SDS011;2694;48.954;8.928;2023-07-08T09:34:10;8.20;;;3.70;;
5343;SDS011;2694;48.954;8.928;2023-07-08T09:36:40;9.02;;;3.92;;
5343;SDS011;2694;48.954;8.928;2023-07-08T09:39:11;8.53;;;4.23;;
5343;SDS011;2694;48.954;8.928;2023-07-08T09:41:39;6.13;;;3.55;;
5343;SDS011;2694;48.954;8.928;2023-07-08T09:44:15;7.70;;;3.97;;
5343;SDS011;2694;48.954;8.928;2023-07-08T09:46:44;10.40;;;3.43;;
5343;SDS011;2694;48.954;8.928;2023-07-08T09:49:20;6.80;;;3.42;;
5343;SDS011;2694;48.954;8.928;2023-07-08T09:51:49;7.00;;;3.40;;
5343;SDS011;2694;48.954;8.928;2023-07-08T09:54:17;7.80;;;3.63;;
5343;SDS011;2694;48.954;8.928;2023-07-08T09:56:50;6.30;;;3.50;;
5343;SDS011;2694;48.954;8.928;2023-07-08T09:59:26;6.85;;;3.42;;
5343;SDS011;2694;48.954;8.928;2023-07-08T10:01:58;7.13;;;3.30;;
5343;SDS011;2694;48.954;8.928;2023-07-08T10:04:43;7.78;;;3.20;;
5343;SDS011;2694;48.954;8.928;2023-07-08T10:07:11;8.65;;;3.40;;
5343;SDS011;2694;48.954;8.928;2023-07-08T10:09:43;6.78;;;3.58;;
5343;SDS011;2694;48.954;8.928;2023-07-08T10:12:14;7.30;;;3.70;;
5343;SDS011;2694;48.954;8.928;2023-07-08T10:14:43;6.60;;;3.72;;
5343;SDS011;2694;48.954;8.928;2023-07-08T10:17:13;7.28;;;3.60;;
5343;SDS011;2694;48.954;8.928;2023-07-08T10:19:44;9.23;;;3.50;;
5343;SDS011;2694;48.954;8.928;2023-07-08T10:22:15;12.35;;;6.80;;
5343;SDS011;2694;48.954;8.928;2023-07-08T10:24:51;12.95;;;7.50;;
5343;SDS011;2694;48.954;8.928;2023-07-08T10:27:30;12.87;;;4.90;;
5343;SDS011;2694;48.954;8.928;2023-07-08T10:30:07;16.20;;;10.15;;
5343;SDS011;2694;48.954;8.928;2023-07-08T10:32:44;13.63;;;7.85;;
5343;SDS011;2694;48.954;8.928;2023-07-08T10:35:27;14.93;;;8.93;;
5343;SDS011;2694;48.954;8.928;2023-07-08T10:38:01;12.80;;;8.25;;
5343;SDS011;2694;48.954;8.928;2023-07-08T10:40:44;9.88;;;5.18;;
5343;SDS011;2694;48.954;8.928;2023-07-08T10:43:25;11.00;;;7.20;;
5343;SDS011;2694;48.954;8.928;2023-07-08T10:46:13;19.20;;;12.68;;
5343;SDS011;2694;48.954;8.928;2023-07-08T10:48:51;9.63;;;4.85;;
5343;SDS011;2694;48.954;8.928;2023-07-08T10:51:33;14.45;;;8.70;;
5343;SDS011;2694;48.954;8.928;2023-07-08T10:54:08;12.40;;;7.55;;
5343;SDS011;2694;48.954;8.928;2023-07-08T10:56:50;23.88;;;17.13;;
5343;SDS011;2694;48.954;8.928;2023-07-08T10:59:28;6.53;;;3.40;;
5343;SDS011;2694;48.954;8.928;2023-07-08T11:02:15;7.85;;;3.72;;
5343;SDS011;2694;48.954;8.928;2023-07-08T11:04:58;7.15;;;3.15;;
5343;SDS011;2694;48.954;8.928;2023-07-08T11:07:39;8.88;;;3.42;;
5343;SDS011;2694;48.954;8.928;2023-07-08T11:10:10;7.70;;;3.30;;
5343;SDS011;2694;48.954;8.928;2023-07-08T11:12:43;7.20;;;2.85;;
5343;SDS011;2694;48.954;8.928;2023-07-08T11:15:15;7.78;;;2.95;;
5343;SDS011;2694;48.954;8.928;2023-07-08T11:17:47;6.53;;;3.05;;
5343;SDS011;2694;48.954;8.928;2023-07-08T11:20:18;9.45;;;3.55;;
5343;SDS011;2694;48.954;8.928;2023-07-08T11:22:51;7.47;;;3.55;;
5343;SDS011;2694;48.954;8.928;2023-07-08T11:25:21;12.00;;;3.50;;
5343;SDS011;2694;48.954;8.928;2023-07-08T11:27:51;8.02;;;2.95;;
5343;SDS011;2694;48.954;8.928;2023-07-08T11:30:23;5.18;;;2.75;;
5343;SDS011;2694;48.954;8.928;2023-07-08T11:32:56;6.32;;;2.60;;
5343;SDS011;2694;48.954;8.928;2023-07-08T11:35:33;4.45;;;2.58;;
5343;SDS011;2694;48.954;8.928;2023-07-08T11:38:06;5.85;;;2.47;;
5343;SDS011;2694;48.954;8.928;2023-07-08T11:40:50;4.60;;;2.58;;
5343;SDS011;2694;48.954;8.928;2023-07-08T11:43:19;5.22;;;2.20;;
5343;SDS011;2694;48.954;8.928;2023-07-08T11:45:48;5.60;;;2.40;;
5343;SDS011;2694;48.954;8.928;2023-07-08T11:48:17;4.70;;;2.60;;
5343;SDS011;2694;48.954;8.928;2023-07-08T11:50:49;4.60;;;2.23;;
5343;SDS011;2694;48.954;8.928;2023-07-08T11:53:34;7.63;;;2.42;;
5343;SDS011;2694;48.954;8.928;2023-07-08T11:56:03;5.30;;;2.88;;
5343;SDS011;2694;48.954;8.928;2023-07-08T12:01:40;4.93;;;2.80;;
5343;SDS011;2694;48.954;8.928;2023-07-08T12:04:17;7.15;;;2.58;;
5343;SDS011;2694;48.954;8.928;2023-07-08T12:06:53;5.93;;;2.60;;
5343;SDS011;2694;48.954;8.928;2023-07-08T12:09:38;4.53;;;2.43;;
5343;SDS011;2694;48.954;8.928;2023-07-08T12:12:16;6.18;;;3.00;;
5343;SDS011;2694;48.954;8.928;2023-07-08T12:14:47;5.95;;;2.72;;
5343;SDS011;2694;48.954;8.928;2023-07-08T12:17:15;8.73;;;2.78;;
5343;SDS011;2694;48.954;8.928;2023-07-08T12:19:43;8.93;;;2.55;;
5343;SDS011;2694;48.954;8.928;2023-07-08T12:22:12;6.15;;;2.17;;
5343;SDS011;2694;48.954;8.928;2023-07-08T12:24:41;5.83;;;2.23;;
5343;SDS011;2694;48.954;8.928;2023-07-08T12:27:09;4.20;;;2.60;;
5343;SDS011;2694;48.954;8.928;2023-07-08T12:29:36;3.75;;;2.10;;
5343;SDS011;2694;48.954;8.928;2023-07-08T12:32:04;5.45;;;2.10;;
5343;SDS011;2694;48.954;8.928;2023-07-08T12:34:32;5.85;;;2.90;;
5343;SDS011;2694;48.954;8.928;2023-07-08T12:36:59;5.78;;;2.90;;
5343;SDS011;2694;48.954;8.928;2023-07-08T12:39:27;6.53;;;2.63;;
5343;SDS011;2694;48.954;8.928;2023-07-08T12:42:01;5.53;;;2.00;;
5343;SDS011;2694;48.954;8.928;2023-07-08T12:44:34;4.80;;;2.00;;
5343;SDS011;2694;48.954;8.928;2023-07-08T12:47:03;3.50;;;2.15;;
5343;SDS011;2694;48.954;8.928;2023-07-08T12:49:30;5.53;;;2.10;;
5343;SDS011;2694;48.954;8.928;2023-07-08T12:51:57;3.65;;;1.70;;
5343;SDS011;2694;48.954;8.928;2023-07-08T12:54:24;3.95;;;1.80;;
5343;SDS011;2694;48.954;8.928;2023-07-08T12:56:51;5.20;;;2.20;;
5343;SDS011;2694;48.954;8.928;2023-07-08T12:59:21;6.53;;;2.20;;
5343;SDS011;2694;48.954;8.928;2023-07-08T13:01:49;5.82;;;2.35;;
5343;SDS011;2694;48.954;8.928;2023-07-08T13:04:18;4.82;;;2.17;;
5343;SDS011;2694;48.954;8.928;2023-07-08T13:06:45;4.78;;;2.30;;
5343;SDS011;2694;48.954;8.928;2023-07-08T13:09:24;6.30;;;2.33;;
5343;SDS011;2694;48.954;8.928;2023-07-08T13:12:03;4.50;;;2.60;;
5343;SDS011;2694;48.954;8.928;2023-07-08T13:14:40;5.60;;;2.60;;
5343;SDS011;2694;48.954;8.928;2023-07-08T13:17:10;4.63;;;2.40;;
5343;SDS011;2694;48.954;8.928;2023-07-08T13:19:39;5.33;;;2.70;;
5343;SDS011;2694;48.954;8.928;2023-07-08T13:22:08;7.00;;;2.45;;
5343;SDS011;2694;48.954;8.928;2023-07-08T13:24:38;4.97;;;2.05;;
5343;SDS011;2694;48.954;8.928;2023-07-08T13:27:06;5.63;;;2.80;;
5343;SDS011;2694;48.954;8.928;2023-07-08T13:29:36;6.97;;;2.70;;
5343;SDS011;2694;48.954;8.928;2023-07-08T13:32:05;4.43;;;2.15;;
5343;SDS011;2694;48.954;8.928;2023-07-08T13:34:36;5.80;;;2.05;;
5343;SDS011;2694;48.954;8.928;2023-07-08T13:37:08;6.45;;;2.20;;
5343;SDS011;2694;48.954;8.928;2023-07-08T13:39:37;6.78;;;3.00;;
5343;SDS011;2694;48.954;8.928;2023-07-08T13:42:05;7.70;;;2.20;;
5343;SDS011;2694;48.954;8.928;2023-07-08T13:44:34;4.68;;;2.20;;
5343;SDS011;2694;48.954;8.928;2023-07-08T13:47:18;4.85;;;2.65;;
5343;SDS011;2694;48.954;8.928;2023-07-08T13:49:54;6.47;;;2.20;;
5343;SDS011;2694;48.954;8.928;2023-07-08T13:52:25;4.40;;;2.47;;
5343;SDS011;2694;48.954;8.928;2023-07-08T13:54:53;5.05;;;2.90;;
5343;SDS011;2694;48.954;8.928;2023-07-08T13:57:28;4.20;;;2.42;;
5343;SDS011;2694;48.954;8.928;2023-07-08T13:59:58;3.90;;;2.50;;
5343;SDS011;2694;48.954;8.928;2023-07-08T14:02:28;10.60;;;3.05;;
5343;SDS011;2694;48.954;8.928;2023-07-08T14:04:57;5.10;;;2.40;;
5343;SDS011;2694;48.954;8.928;2023-07-08T14:07:32;6.82;;;2.97;;
5343;SDS011;2694;48.954;8.928;2023-07-08T14:09:59;5.47;;;2.38;;
5343;SDS011;2694;48.954;8.928;2023-07-08T14:12:26;5.17;;;2.40;;
5343;SDS011;2694;48.954;8.928;2023-07-08T14:14:53;4.45;;;2.33;;
5343;SDS011;2694;48.954;8.928;2023-07-08T14:17:21;3.85;;;2.38;;
5343;SDS011;2694;48.954;8.928;2023-07-08T14:19:52;5.60;;;2.35;;
5343;SDS011;2694;48.954;8.928;2023-07-08T14:22:23;4.35;;;2.58;;
5343;SDS011;2694;48.954;8.928;2023-07-08T14:24:51;5.33;;;2.80;;
5343;SDS011;2694;48.954;8.928;2023-07-08T14:27:19;8.82;;;3.05;;
5343;SDS011;2694;48.954;8.928;2023-07-08T14:29:46;6.20;;;2.60;;
5343;SDS011;2694;48.954;8.928;2023-07-08T14:32:16;5.45;;;2.50;;
5343;SDS011;2694;48.954;8.928;2023-07-08T14:34:48;4.85;;;2.33;;
5343;SDS011;2694;48.954;8.928;2023-07-08T14:37:19;7.60;;;2.90;;
5343;SDS011;2694;48.954;8.928;2023-07-08T14:39:47;7.35;;;2.58;;
5343;SDS011;2694;48.954;8.928;2023-07-08T14:42:15;4.40;;;2.50;;
5343;SDS011;2694;48.954;8.928;2023-07-08T14:44:44;6.57;;;2.42;;
5343;SDS011;2694;48.954;8.928;2023-07-08T14:47:14;6.93;;;2.85;;
5343;SDS011;2694;48.954;8.928;2023-07-08T14:49:42;5.97;;;2.40;;
5343;SDS011;2694;48.954;8.928;2023-07-08T14:52:09;6.47;;;2.30;;
5343;SDS011;2694;48.954;8.928;2023-07-08T14:54:38;6.93;;;2.85;;
5343;SDS011;2694;48.954;8.928;2023-07-08T14:57:06;6.05;;;2.22;;
5343;SDS011;2694;48.954;8.928;2023-07-08T14:59:36;4.30;;;2.10;;
5343;SDS011;2694;48.954;8.928;2023-07-08T15:02:12;4.15;;;2.50;;
5343;SDS011;2694;48.954;8.928;2023-07-08T15:04:44;4.25;;;2.47;;
5343;SDS011;2694;48.954;8.928;2023-07-08T15:07:11;5.95;;;2.25;;
5343;SDS011;2694;48.954;8.928;2023-07-08T15:09:40;5.07;;;2.20;;
5343;SDS011;2694;48.954;8.928;2023-07-08T15:12:08;5.13;;;2.50;;
5343;SDS011;2694;48.954;8.928;2023-07-08T15:14:37;4.82;;;2.60;;
5343;SDS011;2694;48.954;8.928;2023-07-08T15:17:08;5.10;;;2.15;;
5343;SDS011;2694;48.954;8.928;2023-07-08T15:19:41;8.85;;;2.60;;
5343;SDS011;2694;48.954;8.928;2023-07-08T15:22:08;5.40;;;2.70;;
5343;SDS011;2694;48.954;8.928;2023-07-08T15:24:35;4.57;;;2.23;;
5343;SDS011;2694;48.954;8.928;2023-07-08T15:27:04;6.30;;;3.30;;